LAN211 SCEL-SCIE
Flight info
| Callsign | LAN211 |
|---|---|
| Flight time | N/A |
| Altitude | 31000 |
| Route | GELUS5B GELUS UQ809 ARUNI ARUNI1A |
| Aircraft | A320/M-SDE3FGHIRWY/LB1 |
Departure
| Time | 2026-05-06 03:36 |
|---|---|
| Airport | Comodoro Arturo Merino Benítez International Airport (SCEL) |
Arrival
| Time | N/A |
|---|---|
| Airport | Carriel Sur International Airport (SCIE) |
| Time | Latitude | Longitude | Altitude | Speed | Heading |
|---|---|---|---|---|---|
| 2026-05-06 03:20 | -33.39602 | -70.79453 | 1564 ft | 0 kts | 176° |
| 2026-05-06 03:21 | -33.39599 | -70.79453 | 1564 ft | 3 kts | 176° |
| 2026-05-06 03:21 | -33.39573 | -70.79455 | 1564 ft | 4 kts | 178° |
| 2026-05-06 03:21 | -33.39546 | -70.79455 | 1564 ft | 4 kts | 179° |
| 2026-05-06 03:21 | -33.39524 | -70.79455 | 1564 ft | 4 kts | 207° |
| 2026-05-06 03:22 | -33.39511 | -70.79434 | 1564 ft | 4 kts | 262° |
| 2026-05-06 03:22 | -33.39509 | -70.79406 | 1564 ft | 1 kts | 267° |
| 2026-05-06 03:22 | -33.39509 | -70.79405 | 1564 ft | 0 kts | 267° |
| 2026-05-06 03:25 | -33.39509 | -70.79406 | 1564 ft | 1 kts | 267° |
| 2026-05-06 03:26 | -33.39510 | -70.79425 | 1564 ft | 3 kts | 267° |
| 2026-05-06 03:26 | -33.39512 | -70.79464 | 1564 ft | 6 kts | 267° |
| 2026-05-06 03:26 | -33.39514 | -70.79524 | 1564 ft | 8 kts | 267° |
| 2026-05-06 03:26 | -33.39518 | -70.79604 | 1565 ft | 11 kts | 266° |
| 2026-05-06 03:27 | -33.39522 | -70.79698 | 1565 ft | 11 kts | 267° |
| 2026-05-06 03:27 | -33.39526 | -70.79801 | 1565 ft | 14 kts | 268° |
| 2026-05-06 03:27 | -33.39529 | -70.79923 | 1565 ft | 16 kts | 268° |
| 2026-05-06 03:27 | -33.39518 | -70.80023 | 1566 ft | 9 kts | 303° |
| 2026-05-06 03:28 | -33.39455 | -70.80048 | 1566 ft | 11 kts | 358° |
| 2026-05-06 03:28 | -33.39372 | -70.80051 | 1566 ft | 13 kts | 358° |
| 2026-05-06 03:28 | -33.39274 | -70.80057 | 1566 ft | 15 kts | 356° |
| 2026-05-06 03:28 | -33.39158 | -70.80064 | 1566 ft | 18 kts | 356° |
| 2026-05-06 03:29 | -33.39026 | -70.80071 | 1567 ft | 20 kts | 358° |
| 2026-05-06 03:29 | -33.38879 | -70.80080 | 1567 ft | 23 kts | 357° |
| 2026-05-06 03:29 | -33.38711 | -70.80089 | 1567 ft | 25 kts | 357° |
| 2026-05-06 03:29 | -33.38527 | -70.80099 | 1567 ft | 28 kts | 357° |
| 2026-05-06 03:30 | -33.38337 | -70.80109 | 1566 ft | 23 kts | 357° |
| 2026-05-06 03:30 | -33.38168 | -70.80118 | 1566 ft | 26 kts | 357° |
| 2026-05-06 03:30 | -33.37981 | -70.80128 | 1566 ft | 28 kts | 357° |
| 2026-05-06 03:30 | -33.37777 | -70.80139 | 1566 ft | 30 kts | 357° |
| 2026-05-06 03:31 | -33.37561 | -70.80150 | 1567 ft | 32 kts | 357° |
| 2026-05-06 03:31 | -33.37332 | -70.80162 | 1567 ft | 34 kts | 358° |
| 2026-05-06 03:31 | -33.37175 | -70.80170 | 1567 ft | 10 kts | 356° |
| 2026-05-06 03:31 | -33.37116 | -70.80222 | 1568 ft | 11 kts | 301° |
| 2026-05-06 03:32 | -33.37107 | -70.80303 | 1573 ft | 9 kts | 259° |
| 2026-05-06 03:32 | -33.37136 | -70.80358 | 1574 ft | 9 kts | 220° |
| 2026-05-06 03:32 | -33.37189 | -70.80374 | 1573 ft | 9 kts | 178° |
| 2026-05-06 03:32 | -33.37206 | -70.80373 | 1573 ft | 0 kts | 177° |
| 2026-05-06 03:35 | -33.37208 | -70.80373 | 1573 ft | 0 kts | 177° |
| 2026-05-06 03:35 | -33.37211 | -70.80373 | 1573 ft | 5 kts | 177° |
| 2026-05-06 03:35 | -33.37481 | -70.80358 | 1574 ft | 75 kts | 177° |
| 2026-05-06 03:36 | -33.38219 | -70.80319 | 1572 ft | 134 kts | 177° |
| 2026-05-06 03:36 | -33.39278 | -70.80262 | 1806 ft | 158 kts | 177° |
| 2026-05-06 03:36 | -33.40360 | -70.80189 | 2466 ft | 157 kts | 175° |
| 2026-05-06 03:36 | -33.41085 | -70.80145 | 2875 ft | 160 kts | 176° |
| 2026-05-06 03:37 | -33.42709 | -70.80051 | 3332 ft | 190 kts | 177° |
| 2026-05-06 03:37 | -33.43619 | -70.79999 | 3548 ft | 206 kts | 177° |
| 2026-05-06 03:37 | -33.45139 | -70.79916 | 3920 ft | 231 kts | 177° |
| 2026-05-06 03:37 | -33.46802 | -70.80133 | 4376 ft | 254 kts | 204° |
| 2026-05-06 03:38 | -33.48193 | -70.81521 | 4973 ft | 270 kts | 237° |
| 2026-05-06 03:38 | -33.49065 | -70.83528 | 5866 ft | 274 kts | 251° |
| 2026-05-06 03:38 | -33.49738 | -70.85671 | 6823 ft | 276 kts | 255° |
| 2026-05-06 03:38 | -33.50398 | -70.87846 | 7745 ft | 280 kts | 255° |
| 2026-05-06 03:39 | -33.51115 | -70.90034 | 8596 ft | 286 kts | 253° |
| 2026-05-06 03:39 | -33.51903 | -70.92228 | 8893 ft | 283 kts | 252° |
| 2026-05-06 03:39 | -33.52739 | -70.94393 | 8996 ft | 287 kts | 251° |
| 2026-05-06 03:39 | -33.53702 | -70.96504 | 9013 ft | 294 kts | 239° |
| 2026-05-06 03:40 | -33.55214 | -70.98204 | 9036 ft | 308 kts | 217° |
| 2026-05-06 03:40 | -33.57170 | -70.99407 | 9783 ft | 316 kts | 211° |
| 2026-05-06 03:40 | -33.59158 | -71.00592 | 10473 ft | 328 kts | 212° |